sensor_id;sensor_type;location;lat;lon;timestamp;temperature;humidity
61807;DHT22;47726;52.766;6.606;2022-12-07T00:00:53;5.10;99.90
61807;DHT22;47726;52.766;6.606;2022-12-07T00:03:19;5.00;99.90
61807;DHT22;47726;52.766;6.606;2022-12-07T00:05:45;5.00;99.90
61807;DHT22;47726;52.766;6.606;2022-12-07T00:08:10;5.00;99.90
61807;DHT22;47726;52.766;6.606;2022-12-07T00:10:36;4.90;99.90
61807;DHT22;47726;52.766;6.606;2022-12-07T00:13:01;4.90;99.90
61807;DHT22;47726;52.766;6.606;2022-12-07T00:15:27;4.90;99.90
61807;DHT22;47726;52.766;6.606;2022-12-07T00:17:53;4.90;99.90
61807;DHT22;47726;52.766;6.606;2022-12-07T00:20:19;4.90;99.90
61807;DHT22;47726;52.766;6.606;2022-12-07T00:22:44;4.90;99.90
61807;DHT22;47726;52.766;6.606;2022-12-07T00:25:10;4.80;99.90
61807;DHT22;47726;52.766;6.606;2022-12-07T00:27:35;4.80;99.90
61807;DHT22;47726;52.766;6.606;2022-12-07T00:30:01;4.80;99.90
61807;DHT22;47726;52.766;6.606;2022-12-07T00:32:27;4.70;99.90
61807;DHT22;47726;52.766;6.606;2022-12-07T00:34:52;4.80;99.90
61807;DHT22;47726;52.766;6.606;2022-12-07T00:37:18;4.70;99.90
61807;DHT22;47726;52.766;6.606;2022-12-07T00:39:45;4.70;99.90
61807;DHT22;47726;52.766;6.606;2022-12-07T00:42:11;4.70;99.90
61807;DHT22;47726;52.766;6.606;2022-12-07T00:44:37;4.70;99.90
61807;DHT22;47726;52.766;6.606;2022-12-07T00:47:02;4.70;99.90
61807;DHT22;47726;52.766;6.606;2022-12-07T00:49:28;4.70;99.90
61807;DHT22;47726;52.766;6.606;2022-12-07T00:51:53;4.70;99.90
61807;DHT22;47726;52.766;6.606;2022-12-07T00:54:19;4.70;99.90
61807;DHT22;47726;52.766;6.606;2022-12-07T00:56:45;4.70;99.90
61807;DHT22;47726;52.766;6.606;2022-12-07T00:59:13;4.70;99.90
61807;DHT22;47726;52.766;6.606;2022-12-07T01:01:40;4.70;99.90
61807;DHT22;47726;52.766;6.606;2022-12-07T01:04:06;4.70;99.90
61807;DHT22;47726;52.766;6.606;2022-12-07T01:06:32;4.60;99.90
61807;DHT22;47726;52.766;6.606;2022-12-07T01:08:58;4.60;99.90
61807;DHT22;47726;52.766;6.606;2022-12-07T01:11:26;4.60;99.90
61807;DHT22;47726;52.766;6.606;2022-12-07T01:13:54;4.60;99.90
61807;DHT22;47726;52.766;6.606;2022-12-07T01:16:21;4.60;99.90
61807;DHT22;47726;52.766;6.606;2022-12-07T01:18:49;4.60;99.90
61807;DHT22;47726;52.766;6.606;2022-12-07T01:21:18;4.60;99.90
61807;DHT22;47726;52.766;6.606;2022-12-07T01:23:46;4.60;99.90
61807;DHT22;47726;52.766;6.606;2022-12-07T01:26:14;4.60;99.90
61807;DHT22;47726;52.766;6.606;2022-12-07T01:28:40;4.60;99.90
61807;DHT22;47726;52.766;6.606;2022-12-07T01:31:09;4.60;99.90
61807;DHT22;47726;52.766;6.606;2022-12-07T01:33:37;4.60;99.90
61807;DHT22;47726;52.766;6.606;2022-12-07T01:36:04;4.60;99.90
61807;DHT22;47726;52.766;6.606;2022-12-07T01:38:31;4.60;99.90
61807;DHT22;47726;52.766;6.606;2022-12-07T01:40:57;4.60;99.90
61807;DHT22;47726;52.766;6.606;2022-12-07T01:43:24;4.60;99.90
61807;DHT22;47726;52.766;6.606;2022-12-07T01:45:51;4.60;99.90
61807;DHT22;47726;52.766;6.606;2022-12-07T01:48:19;4.60;99.90
61807;DHT22;47726;52.766;6.606;2022-12-07T01:50:48;4.60;99.90
61807;DHT22;47726;52.766;6.606;2022-12-07T01:53:16;4.60;99.90
61807;DHT22;47726;52.766;6.606;2022-12-07T01:55:45;4.60;99.90
61807;DHT22;47726;52.766;6.606;2022-12-07T01:58:12;4.60;99.90
61807;DHT22;47726;52.766;6.606;2022-12-07T02:00:40;4.60;99.90
61807;DHT22;47726;52.766;6.606;2022-12-07T02:05:41;4.60;99.90
61807;DHT22;47726;52.766;6.606;2022-12-07T02:08:07;4.60;99.90
61807;DHT22;47726;52.766;6.606;2022-12-07T02:10:34;4.60;99.90
61807;DHT22;47726;52.766;6.606;2022-12-07T02:15:41;4.60;99.90
61807;DHT22;47726;52.766;6.606;2022-12-07T02:29:27;4.50;99.90
61807;DHT22;47726;52.766;6.606;2022-12-07T02:34:38;4.50;99.90
61807;DHT22;47726;52.766;6.606;2022-12-07T02:37:14;4.50;99.90
61807;DHT22;47726;52.766;6.606;2022-12-07T02:43:25;4.40;99.90
61807;DHT22;47726;52.766;6.606;2022-12-07T02:45:58;4.40;99.90
61807;DHT22;47726;52.766;6.606;2022-12-07T02:48:26;4.40;99.90
61807;DHT22;47726;52.766;6.606;2022-12-07T02:50:53;4.40;99.90
61807;DHT22;47726;52.766;6.606;2022-12-07T02:53:40;4.40;99.90
61807;DHT22;47726;52.766;6.606;2022-12-07T03:02:20;4.30;99.90
61807;DHT22;47726;52.766;6.606;2022-12-07T03:08:02;4.30;99.90
61807;DHT22;47726;52.766;6.606;2022-12-07T03:10:40;4.30;99.90
61807;DHT22;47726;52.766;6.606;2022-12-07T03:18:30;4.30;99.90
61807;DHT22;47726;52.766;6.606;2022-12-07T03:21:01;4.30;99.90
61807;DHT22;47726;52.766;6.606;2022-12-07T03:23:28;4.30;99.90
61807;DHT22;47726;52.766;6.606;2022-12-07T03:25:57;4.30;99.90
61807;DHT22;47726;52.766;6.606;2022-12-07T03:28:28;4.20;99.90
61807;DHT22;47726;52.766;6.606;2022-12-07T03:31:04;4.30;99.90
61807;DHT22;47726;52.766;6.606;2022-12-07T03:33:52;4.30;99.90
61807;DHT22;47726;52.766;6.606;2022-12-07T03:36:26;4.20;99.90
61807;DHT22;47726;52.766;6.606;2022-12-07T03:41:44;4.20;99.90
61807;DHT22;47726;52.766;6.606;2022-12-07T03:44:10;4.20;99.90
61807;DHT22;47726;52.766;6.606;2022-12-07T03:49:13;4.20;99.90
61807;DHT22;47726;52.766;6.606;2022-12-07T03:52:12;4.20;99.90
61807;DHT22;47726;52.766;6.606;2022-12-07T03:57:23;4.20;99.90
61807;DHT22;47726;52.766;6.606;2022-12-07T03:59:50;4.20;99.90
61807;DHT22;47726;52.766;6.606;2022-12-07T04:02:17;4.20;99.90
61807;DHT22;47726;52.766;6.606;2022-12-07T04:04:43;4.20;99.90
61807;DHT22;47726;52.766;6.606;2022-12-07T04:07:09;4.20;99.90
61807;DHT22;47726;52.766;6.606;2022-12-07T04:09:34;4.20;99.90
61807;DHT22;47726;52.766;6.606;2022-12-07T04:12:00;4.20;99.90
61807;DHT22;47726;52.766;6.606;2022-12-07T04:14:26;4.20;99.90
61807;DHT22;47726;52.766;6.606;2022-12-07T04:16:56;4.20;99.90
61807;DHT22;47726;52.766;6.606;2022-12-07T04:19:30;4.20;99.90
61807;DHT22;47726;52.766;6.606;2022-12-07T04:21:57;4.10;99.90
61807;DHT22;47726;52.766;6.606;2022-12-07T04:24:24;4.10;99.90
61807;DHT22;47726;52.766;6.606;2022-12-07T04:26:50;4.10;99.90
61807;DHT22;47726;52.766;6.606;2022-12-07T04:29:17;4.10;99.90
61807;DHT22;47726;52.766;6.606;2022-12-07T04:31:43;4.10;99.90
61807;DHT22;47726;52.766;6.606;2022-12-07T04:34:09;4.10;99.90
61807;DHT22;47726;52.766;6.606;2022-12-07T04:36:36;4.00;99.90
61807;DHT22;47726;52.766;6.606;2022-12-07T04:39:03;4.00;99.90
61807;DHT22;47726;52.766;6.606;2022-12-07T04:41:29;4.10;99.90
61807;DHT22;47726;52.766;6.606;2022-12-07T04:44:00;4.10;99.90
61807;DHT22;47726;52.766;6.606;2022-12-07T04:46:27;4.00;99.90
61807;DHT22;47726;52.766;6.606;2022-12-07T04:48:54;4.00;99.90
61807;DHT22;47726;52.766;6.606;2022-12-07T04:51:26;4.00;99.90
61807;DHT22;47726;52.766;6.606;2022-12-07T04:53:52;4.00;99.90
61807;DHT22;47726;52.766;6.606;2022-12-07T04:56:18;4.00;99.90
61807;DHT22;47726;52.766;6.606;2022-12-07T04:58:45;4.00;99.90
61807;DHT22;47726;52.766;6.606;2022-12-07T05:01:12;4.00;99.90
61807;DHT22;47726;52.766;6.606;2022-12-07T05:03:38;4.00;99.90
61807;DHT22;47726;52.766;6.606;2022-12-07T05:06:04;3.90;99.90
61807;DHT22;47726;52.766;6.606;2022-12-07T05:08:31;3.90;99.90
61807;DHT22;47726;52.766;6.606;2022-12-07T05:10:57;3.90;99.90
61807;DHT22;47726;52.766;6.606;2022-12-07T05:13:22;3.90;99.90
61807;DHT22;47726;52.766;6.606;2022-12-07T05:15:48;3.90;99.90
61807;DHT22;47726;52.766;6.606;2022-12-07T05:18:14;3.90;99.90
61807;DHT22;47726;52.766;6.606;2022-12-07T05:20:40;3.90;99.90
61807;DHT22;47726;52.766;6.606;2022-12-07T05:23:06;3.90;99.90
61807;DHT22;47726;52.766;6.606;2022-12-07T05:25:32;3.90;99.90
61807;DHT22;47726;52.766;6.606;2022-12-07T05:27:58;3.90;99.90
61807;DHT22;47726;52.766;6.606;2022-12-07T05:30:24;3.90;99.90
61807;DHT22;47726;52.766;6.606;2022-12-07T05:32:50;3.90;99.90
61807;DHT22;47726;52.766;6.606;2022-12-07T05:35:16;3.90;99.90
61807;DHT22;47726;52.766;6.606;2022-12-07T05:37:42;3.90;99.90
61807;DHT22;47726;52.766;6.606;2022-12-07T05:40:09;3.90;99.90
61807;DHT22;47726;52.766;6.606;2022-12-07T05:42:35;3.90;99.90
61807;DHT22;47726;52.766;6.606;2022-12-07T05:45:00;3.90;99.90
61807;DHT22;47726;52.766;6.606;2022-12-07T05:47:26;3.90;99.90
61807;DHT22;47726;52.766;6.606;2022-12-07T05:49:52;3.90;99.90
61807;DHT22;47726;52.766;6.606;2022-12-07T05:52:18;3.90;99.90
61807;DHT22;47726;52.766;6.606;2022-12-07T05:54:43;3.90;99.90
61807;DHT22;47726;52.766;6.606;2022-12-07T05:57:09;3.90;99.90
61807;DHT22;47726;52.766;6.606;2022-12-07T05:59:35;3.90;99.90
61807;DHT22;47726;52.766;6.606;2022-12-07T06:02:03;3.90;99.90
61807;DHT22;47726;52.766;6.606;2022-12-07T06:04:32;3.90;99.90
61807;DHT22;47726;52.766;6.606;2022-12-07T06:06:58;3.90;99.90
61807;DHT22;47726;52.766;6.606;2022-12-07T06:09:26;3.90;99.90
61807;DHT22;47726;52.766;6.606;2022-12-07T06:11:51;3.90;99.90
61807;DHT22;47726;52.766;6.606;2022-12-07T06:14:36;3.90;99.90
61807;DHT22;47726;52.766;6.606;2022-12-07T06:17:02;3.90;99.90
61807;DHT22;47726;52.766;6.606;2022-12-07T06:19:27;3.90;99.90
61807;DHT22;47726;52.766;6.606;2022-12-07T06:21:53;3.90;99.90
61807;DHT22;47726;52.766;6.606;2022-12-07T06:24:19;3.90;99.90
61807;DHT22;47726;52.766;6.606;2022-12-07T06:26:45;3.90;99.90
61807;DHT22;47726;52.766;6.606;2022-12-07T06:29:11;3.90;99.90
61807;DHT22;47726;52.766;6.606;2022-12-07T06:31:37;3.90;99.90
61807;DHT22;47726;52.766;6.606;2022-12-07T06:34:10;3.90;99.90
61807;DHT22;47726;52.766;6.606;2022-12-07T06:36:36;3.80;99.90
61807;DHT22;47726;52.766;6.606;2022-12-07T06:39:02;3.80;99.90
61807;DHT22;47726;52.766;6.606;2022-12-07T06:41:28;3.80;99.90
61807;DHT22;47726;52.766;6.606;2022-12-07T06:43:53;3.90;99.90
61807;DHT22;47726;52.766;6.606;2022-12-07T06:46:19;3.80;99.90
61807;DHT22;47726;52.766;6.606;2022-12-07T06:48:45;3.80;99.90
61807;DHT22;47726;52.766;6.606;2022-12-07T06:51:11;3.80;99.90
61807;DHT22;47726;52.766;6.606;2022-12-07T06:53:37;3.80;99.90
61807;DHT22;47726;52.766;6.606;2022-12-07T06:56:03;3.90;99.90
61807;DHT22;47726;52.766;6.606;2022-12-07T06:58:30;3.90;99.90
61807;DHT22;47726;52.766;6.606;2022-12-07T07:00:55;3.90;99.90
61807;DHT22;47726;52.766;6.606;2022-12-07T07:03:21;3.90;99.90
61807;DHT22;47726;52.766;6.606;2022-12-07T07:05:47;3.90;99.90
61807;DHT22;47726;52.766;6.606;2022-12-07T07:08:13;3.90;99.90
61807;DHT22;47726;52.766;6.606;2022-12-07T07:10:39;3.90;99.90
61807;DHT22;47726;52.766;6.606;2022-12-07T07:13:05;3.90;99.90
61807;DHT22;47726;52.766;6.606;2022-12-07T07:15:32;3.90;99.90
61807;DHT22;47726;52.766;6.606;2022-12-07T07:17:58;3.90;99.90
61807;DHT22;47726;52.766;6.606;2022-12-07T07:20:23;3.90;99.90
61807;DHT22;47726;52.766;6.606;2022-12-07T07:22:49;3.90;99.90
61807;DHT22;47726;52.766;6.606;2022-12-07T07:25:15;3.90;99.90
61807;DHT22;47726;52.766;6.606;2022-12-07T07:27:41;3.90;99.90
61807;DHT22;47726;52.766;6.606;2022-12-07T07:30:08;3.90;99.90
61807;DHT22;47726;52.766;6.606;2022-12-07T07:32:34;3.90;99.90
61807;DHT22;47726;52.766;6.606;2022-12-07T07:35:00;3.90;99.90
61807;DHT22;47726;52.766;6.606;2022-12-07T07:37:26;3.90;99.90
61807;DHT22;47726;52.766;6.606;2022-12-07T07:39:51;3.90;99.90
61807;DHT22;47726;52.766;6.606;2022-12-07T07:42:17;3.90;99.90
61807;DHT22;47726;52.766;6.606;2022-12-07T07:44:43;3.90;99.90
61807;DHT22;47726;52.766;6.606;2022-12-07T07:47:09;3.90;99.90
61807;DHT22;47726;52.766;6.606;2022-12-07T07:49:34;3.90;99.90
61807;DHT22;47726;52.766;6.606;2022-12-07T07:52:00;3.90;99.90
61807;DHT22;47726;52.766;6.606;2022-12-07T07:54:25;3.90;99.90
61807;DHT22;47726;52.766;6.606;2022-12-07T07:56:52;3.90;99.90
61807;DHT22;47726;52.766;6.606;2022-12-07T07:59:18;3.90;99.90
61807;DHT22;47726;52.766;6.606;2022-12-07T08:01:44;3.90;99.90
61807;DHT22;47726;52.766;6.606;2022-12-07T08:04:09;3.90;99.90
61807;DHT22;47726;52.766;6.606;2022-12-07T08:06:35;3.90;99.90
61807;DHT22;47726;52.766;6.606;2022-12-07T08:09:02;3.90;99.90
61807;DHT22;47726;52.766;6.606;2022-12-07T08:11:27;3.90;99.90
61807;DHT22;47726;52.766;6.606;2022-12-07T08:13:53;3.90;99.90
61807;DHT22;47726;52.766;6.606;2022-12-07T08:16:19;3.90;99.90
61807;DHT22;47726;52.766;6.606;2022-12-07T08:18:44;3.90;99.90
61807;DHT22;47726;52.766;6.606;2022-12-07T08:21:14;4.00;99.90
61807;DHT22;47726;52.766;6.606;2022-12-07T08:23:41;4.00;99.90
61807;DHT22;47726;52.766;6.606;2022-12-07T08:26:09;4.00;99.90
61807;DHT22;47726;52.766;6.606;2022-12-07T08:28:36;4.00;99.90
61807;DHT22;47726;52.766;6.606;2022-12-07T08:31:07;4.00;99.90
61807;DHT22;47726;52.766;6.606;2022-12-07T08:33:34;4.10;99.90
61807;DHT22;47726;52.766;6.606;2022-12-07T08:36:05;4.10;99.90
61807;DHT22;47726;52.766;6.606;2022-12-07T08:38:32;4.10;99.90
61807;DHT22;47726;52.766;6.606;2022-12-07T08:40:59;4.10;99.90
61807;DHT22;47726;52.766;6.606;2022-12-07T08:43:25;4.10;99.90
61807;DHT22;47726;52.766;6.606;2022-12-07T08:46:09;4.20;99.90
61807;DHT22;47726;52.766;6.606;2022-12-07T08:48:44;4.10;99.90
61807;DHT22;47726;52.766;6.606;2022-12-07T08:51:12;4.10;99.90
61807;DHT22;47726;52.766;6.606;2022-12-07T08:53:38;4.10;99.90
61807;DHT22;47726;52.766;6.606;2022-12-07T08:56:05;4.20;99.90
61807;DHT22;47726;52.766;6.606;2022-12-07T08:58:33;4.30;99.90
61807;DHT22;47726;52.766;6.606;2022-12-07T09:00:59;4.40;99.90
61807;DHT22;47726;52.766;6.606;2022-12-07T09:03:24;4.50;99.90
61807;DHT22;47726;52.766;6.606;2022-12-07T09:05:51;4.70;99.90
61807;DHT22;47726;52.766;6.606;2022-12-07T09:08:17;4.80;99.90
61807;DHT22;47726;52.766;6.606;2022-12-07T09:10:43;4.90;99.90
61807;DHT22;47726;52.766;6.606;2022-12-07T09:13:09;4.90;99.90
61807;DHT22;47726;52.766;6.606;2022-12-07T09:15:34;4.90;99.90
61807;DHT22;47726;52.766;6.606;2022-12-07T09:18:00;5.00;99.90
61807;DHT22;47726;52.766;6.606;2022-12-07T09:20:26;5.10;99.90
61807;DHT22;47726;52.766;6.606;2022-12-07T09:22:51;5.20;99.90
61807;DHT22;47726;52.766;6.606;2022-12-07T09:25:17;5.40;99.90
61807;DHT22;47726;52.766;6.606;2022-12-07T09:27:42;5.50;99.90
61807;DHT22;47726;52.766;6.606;2022-12-07T09:30:08;5.50;99.90
61807;DHT22;47726;52.766;6.606;2022-12-07T09:32:34;5.60;99.90
61807;DHT22;47726;52.766;6.606;2022-12-07T09:34:59;5.60;99.90
61807;DHT22;47726;52.766;6.606;2022-12-07T09:37:25;5.60;99.90
61807;DHT22;47726;52.766;6.606;2022-12-07T09:39:51;5.60;99.90
61807;DHT22;47726;52.766;6.606;2022-12-07T09:42:50;5.50;99.90
61807;DHT22;47726;52.766;6.606;2022-12-07T09:45:27;5.50;99.90
61807;DHT22;47726;52.766;6.606;2022-12-07T09:47:57;5.50;99.90
61807;DHT22;47726;52.766;6.606;2022-12-07T09:50:25;5.60;99.90
61807;DHT22;47726;52.766;6.606;2022-12-07T09:52:52;5.60;99.90
61807;DHT22;47726;52.766;6.606;2022-12-07T09:55:27;5.60;99.90
61807;DHT22;47726;52.766;6.606;2022-12-07T09:57:53;5.70;99.90
61807;DHT22;47726;52.766;6.606;2022-12-07T10:00:21;5.70;99.90
61807;DHT22;47726;52.766;6.606;2022-12-07T10:05:21;5.80;99.90
61807;DHT22;47726;52.766;6.606;2022-12-07T10:07:48;5.90;99.90
61807;DHT22;47726;52.766;6.606;2022-12-07T10:10:24;5.90;99.90
61807;DHT22;47726;52.766;6.606;2022-12-07T10:13:02;5.90;99.90
61807;DHT22;47726;52.766;6.606;2022-12-07T10:21:11;5.90;99.90
61807;DHT22;47726;52.766;6.606;2022-12-07T10:23:45;5.80;99.90
61807;DHT22;47726;52.766;6.606;2022-12-07T10:26:34;5.80;99.90
61807;DHT22;47726;52.766;6.606;2022-12-07T10:29:04;5.80;99.90
61807;DHT22;47726;52.766;6.606;2022-12-07T10:31:39;5.70;99.90
61807;DHT22;47726;52.766;6.606;2022-12-07T10:34:26;5.70;99.90
61807;DHT22;47726;52.766;6.606;2022-12-07T10:36:53;5.70;99.90
61807;DHT22;47726;52.766;6.606;2022-12-07T10:39:23;5.70;99.90
61807;DHT22;47726;52.766;6.606;2022-12-07T10:42:02;5.70;99.90
61807;DHT22;47726;52.766;6.606;2022-12-07T10:44:33;5.80;99.90
61807;DHT22;47726;52.766;6.606;2022-12-07T10:47:22;6.00;99.90
61807;DHT22;47726;52.766;6.606;2022-12-07T11:14:29;6.70;99.90
61807;DHT22;47726;52.766;6.606;2022-12-07T11:17:01;6.70;99.90
61807;DHT22;47726;52.766;6.606;2022-12-07T11:27:33;7.00;99.90
61807;DHT22;47726;52.766;6.606;2022-12-07T11:32:45;7.00;99.90
61807;DHT22;47726;52.766;6.606;2022-12-07T11:35:38;6.90;99.90
61807;DHT22;47726;52.766;6.606;2022-12-07T11:38:15;6.90;99.90
61807;DHT22;47726;52.766;6.606;2022-12-07T11:40:46;6.90;99.90
61807;DHT22;47726;52.766;6.606;2022-12-07T11:43:26;6.80;99.90
61807;DHT22;47726;52.766;6.606;2022-12-07T11:46:14;6.80;99.90
61807;DHT22;47726;52.766;6.606;2022-12-07T11:51:11;6.80;99.90
61807;DHT22;47726;52.766;6.606;2022-12-07T11:54:12;6.70;99.90
61807;DHT22;47726;52.766;6.606;2022-12-07T11:56:40;6.70;99.90
61807;DHT22;47726;52.766;6.606;2022-12-07T11:59:29;6.70;99.90
61807;DHT22;47726;52.766;6.606;2022-12-07T12:02:20;6.70;99.90
61807;DHT22;47726;52.766;6.606;2022-12-07T12:05:05;6.60;99.90
61807;DHT22;47726;52.766;6.606;2022-12-07T12:07:38;6.60;99.90
61807;DHT22;47726;52.766;6.606;2022-12-07T12:10:14;6.60;99.90
61807;DHT22;47726;52.766;6.606;2022-12-07T12:15:57;6.60;99.90
61807;DHT22;47726;52.766;6.606;2022-12-07T12:21:09;6.60;99.90
61807;DHT22;47726;52.766;6.606;2022-12-07T12:23:43;6.70;99.90
61807;DHT22;47726;52.766;6.606;2022-12-07T12:26:20;6.70;99.90
61807;DHT22;47726;52.766;6.606;2022-12-07T12:28:58;6.70;99.90
61807;DHT22;47726;52.766;6.606;2022-12-07T12:33:54;6.70;99.90
61807;DHT22;47726;52.766;6.606;2022-12-07T12:36:25;6.70;99.90
61807;DHT22;47726;52.766;6.606;2022-12-07T12:54:20;6.70;99.90
61807;DHT22;47726;52.766;6.606;2022-12-07T13:07:47;6.70;99.90
61807;DHT22;47726;52.766;6.606;2022-12-07T13:15:44;6.70;99.90
61807;DHT22;47726;52.766;6.606;2022-12-07T13:26:24;6.60;99.90
61807;DHT22;47726;52.766;6.606;2022-12-07T13:29:38;6.60;99.90
61807;DHT22;47726;52.766;6.606;2022-12-07T13:34:33;6.60;99.90
61807;DHT22;47726;52.766;6.606;2022-12-07T13:37:24;6.60;99.90
61807;DHT22;47726;52.766;6.606;2022-12-07T13:39:54;6.60;99.90
61807;DHT22;47726;52.766;6.606;2022-12-07T13:42:29;6.50;99.90
61807;DHT22;47726;52.766;6.606;2022-12-07T13:44:57;6.50;99.90
61807;DHT22;47726;52.766;6.606;2022-12-07T13:49:54;6.30;99.90
61807;DHT22;47726;52.766;6.606;2022-12-07T13:52:27;6.30;99.90
61807;DHT22;47726;52.766;6.606;2022-12-07T13:54:57;6.30;99.90
61807;DHT22;47726;52.766;6.606;2022-12-07T13:57:25;6.30;99.90
61807;DHT22;47726;52.766;6.606;2022-12-07T13:59:52;6.30;99.90
61807;DHT22;47726;52.766;6.606;2022-12-07T14:02:30;6.30;99.90
61807;DHT22;47726;52.766;6.606;2022-12-07T14:05:23;6.20;99.90
61807;DHT22;47726;52.766;6.606;2022-12-07T14:10:33;6.20;99.90
61807;DHT22;47726;52.766;6.606;2022-12-07T14:13:00;6.20;99.90
61807;DHT22;47726;52.766;6.606;2022-12-07T14:15:34;6.20;99.90
61807;DHT22;47726;52.766;6.606;2022-12-07T14:18:02;6.20;99.90
61807;DHT22;47726;52.766;6.606;2022-12-07T14:20:40;6.20;99.90
61807;DHT22;47726;52.766;6.606;2022-12-07T14:23:24;6.20;99.90
61807;DHT22;47726;52.766;6.606;2022-12-07T14:25:52;6.10;99.90
61807;DHT22;47726;52.766;6.606;2022-12-07T14:28:30;6.20;99.90
61807;DHT22;47726;52.766;6.606;2022-12-07T14:30:57;6.10;99.90
61807;DHT22;47726;52.766;6.606;2022-12-07T14:33:24;6.10;99.90
61807;DHT22;47726;52.766;6.606;2022-12-07T14:35:49;6.10;99.90
61807;DHT22;47726;52.766;6.606;2022-12-07T14:38:15;6.10;99.90
61807;DHT22;47726;52.766;6.606;2022-12-07T14:40:43;6.10;99.90
61807;DHT22;47726;52.766;6.606;2022-12-07T14:43:16;6.10;99.90
61807;DHT22;47726;52.766;6.606;2022-12-07T14:45:42;6.10;99.90
61807;DHT22;47726;52.766;6.606;2022-12-07T14:48:11;6.10;99.90
61807;DHT22;47726;52.766;6.606;2022-12-07T14:50:49;6.10;99.90
61807;DHT22;47726;52.766;6.606;2022-12-07T14:53:18;6.10;99.90
61807;DHT22;47726;52.766;6.606;2022-12-07T14:55:44;6.00;99.90
61807;DHT22;47726;52.766;6.606;2022-12-07T14:58:17;6.00;99.90
61807;DHT22;47726;52.766;6.606;2022-12-07T15:00:44;6.00;99.90
61807;DHT22;47726;52.766;6.606;2022-12-07T15:03:10;5.90;99.90
61807;DHT22;47726;52.766;6.606;2022-12-07T15:05:36;5.90;99.90
61807;DHT22;47726;52.766;6.606;2022-12-07T15:08:03;5.90;99.90
61807;DHT22;47726;52.766;6.606;2022-12-07T15:10:31;5.90;99.90
61807;DHT22;47726;52.766;6.606;2022-12-07T15:12:59;5.80;99.90
61807;DHT22;47726;52.766;6.606;2022-12-07T15:15:44;5.80;99.90
61807;DHT22;47726;52.766;6.606;2022-12-07T15:18:10;5.80;99.90
61807;DHT22;47726;52.766;6.606;2022-12-07T15:20:36;5.80;99.90
61807;DHT22;47726;52.766;6.606;2022-12-07T15:23:01;5.80;99.90
61807;DHT22;47726;52.766;6.606;2022-12-07T15:25:27;5.80;99.90
61807;DHT22;47726;52.766;6.606;2022-12-07T15:27:52;5.70;99.90
61807;DHT22;47726;52.766;6.606;2022-12-07T15:30:18;5.70;99.90
61807;DHT22;47726;52.766;6.606;2022-12-07T15:32:44;5.80;99.90
61807;DHT22;47726;52.766;6.606;2022-12-07T15:35:09;5.80;99.90
61807;DHT22;47726;52.766;6.606;2022-12-07T15:37:35;5.70;99.90
61807;DHT22;47726;52.766;6.606;2022-12-07T15:40:01;5.70;99.90
61807;DHT22;47726;52.766;6.606;2022-12-07T15:42:26;5.70;99.90
61807;DHT22;47726;52.766;6.606;2022-12-07T15:44:52;5.70;99.90
61807;DHT22;47726;52.766;6.606;2022-12-07T15:47:31;5.70;99.90
61807;DHT22;47726;52.766;6.606;2022-12-07T15:49:57;5.70;99.90
61807;DHT22;47726;52.766;6.606;2022-12-07T15:52:22;5.60;99.90
61807;DHT22;47726;52.766;6.606;2022-12-07T15:54:48;5.60;99.90
61807;DHT22;47726;52.766;6.606;2022-12-07T15:57:14;5.60;99.90
61807;DHT22;47726;52.766;6.606;2022-12-07T15:59:40;5.60;99.90
61807;DHT22;47726;52.766;6.606;2022-12-07T16:02:05;5.60;99.90
61807;DHT22;47726;52.766;6.606;2022-12-07T16:04:31;5.50;99.90
61807;DHT22;47726;52.766;6.606;2022-12-07T16:06:57;5.50;99.90
61807;DHT22;47726;52.766;6.606;2022-12-07T16:09:22;5.50;99.90
61807;DHT22;47726;52.766;6.606;2022-12-07T16:11:48;5.40;99.90
61807;DHT22;47726;52.766;6.606;2022-12-07T16:14:15;5.50;99.90
61807;DHT22;47726;52.766;6.606;2022-12-07T16:16:41;5.40;99.90
61807;DHT22;47726;52.766;6.606;2022-12-07T16:19:07;5.40;99.90
61807;DHT22;47726;52.766;6.606;2022-12-07T16:21:34;5.40;99.90
61807;DHT22;47726;52.766;6.606;2022-12-07T16:24:01;5.40;99.90
61807;DHT22;47726;52.766;6.606;2022-12-07T16:26:27;5.40;99.90
61807;DHT22;47726;52.766;6.606;2022-12-07T16:28:53;5.40;99.90
61807;DHT22;47726;52.766;6.606;2022-12-07T16:31:22;5.40;99.90
61807;DHT22;47726;52.766;6.606;2022-12-07T16:33:49;5.40;99.90
61807;DHT22;47726;52.766;6.606;2022-12-07T16:36:15;5.30;99.90
61807;DHT22;47726;52.766;6.606;2022-12-07T16:38:42;5.30;99.90
61807;DHT22;47726;52.766;6.606;2022-12-07T16:41:08;5.30;99.90
61807;DHT22;47726;52.766;6.606;2022-12-07T16:43:35;5.30;99.90
61807;DHT22;47726;52.766;6.606;2022-12-07T16:46:01;5.30;99.90
61807;DHT22;47726;52.766;6.606;2022-12-07T16:48:27;5.30;99.90
61807;DHT22;47726;52.766;6.606;2022-12-07T16:50:53;5.30;99.90
61807;DHT22;47726;52.766;6.606;2022-12-07T16:53:23;5.30;99.90
61807;DHT22;47726;52.766;6.606;2022-12-07T16:55:49;5.30;99.90
61807;DHT22;47726;52.766;6.606;2022-12-07T16:58:16;5.20;99.90
61807;DHT22;47726;52.766;6.606;2022-12-07T17:00:43;5.30;99.90
61807;DHT22;47726;52.766;6.606;2022-12-07T17:03:09;5.30;99.90
61807;DHT22;47726;52.766;6.606;2022-12-07T17:05:40;5.30;99.90
61807;DHT22;47726;52.766;6.606;2022-12-07T17:08:06;5.30;99.90
61807;DHT22;47726;52.766;6.606;2022-12-07T17:10:34;5.30;99.90
61807;DHT22;47726;52.766;6.606;2022-12-07T17:13:01;5.20;99.90
61807;DHT22;47726;52.766;6.606;2022-12-07T17:15:27;5.20;99.90
61807;DHT22;47726;52.766;6.606;2022-12-07T17:17:57;5.20;99.90
61807;DHT22;47726;52.766;6.606;2022-12-07T17:20:26;5.20;99.90
61807;DHT22;47726;52.766;6.606;2022-12-07T17:22:52;5.20;99.90
61807;DHT22;47726;52.766;6.606;2022-12-07T17:25:19;5.20;99.90
61807;DHT22;47726;52.766;6.606;2022-12-07T17:27:45;5.20;99.90
61807;DHT22;47726;52.766;6.606;2022-12-07T17:30:12;5.20;99.90
61807;DHT22;47726;52.766;6.606;2022-12-07T17:32:38;5.20;99.90
61807;DHT22;47726;52.766;6.606;2022-12-07T17:35:05;5.20;99.90
61807;DHT22;47726;52.766;6.606;2022-12-07T17:37:31;5.10;99.90
61807;DHT22;47726;52.766;6.606;2022-12-07T17:39:57;5.10;99.90
61807;DHT22;47726;52.766;6.606;2022-12-07T17:42:24;5.20;99.90
61807;DHT22;47726;52.766;6.606;2022-12-07T17:45:06;5.10;99.90
61807;DHT22;47726;52.766;6.606;2022-12-07T17:47:33;5.10;99.90
61807;DHT22;47726;52.766;6.606;2022-12-07T17:49:58;5.10;99.90
61807;DHT22;47726;52.766;6.606;2022-12-07T17:52:24;5.10;99.90
61807;DHT22;47726;52.766;6.606;2022-12-07T17:55:09;5.10;99.90
61807;DHT22;47726;52.766;6.606;2022-12-07T17:57:34;5.10;99.90
61807;DHT22;47726;52.766;6.606;2022-12-07T18:00:00;5.00;99.90
61807;DHT22;47726;52.766;6.606;2022-12-07T18:02:26;5.00;99.90
61807;DHT22;47726;52.766;6.606;2022-12-07T18:04:51;5.00;99.90
61807;DHT22;47726;52.766;6.606;2022-12-07T18:07:17;5.00;99.90
61807;DHT22;47726;52.766;6.606;2022-12-07T18:09:45;5.00;99.90
61807;DHT22;47726;52.766;6.606;2022-12-07T18:12:11;5.00;99.90
61807;DHT22;47726;52.766;6.606;2022-12-07T18:14:36;5.00;99.90
61807;DHT22;47726;52.766;6.606;2022-12-07T18:17:02;4.90;99.90
61807;DHT22;47726;52.766;6.606;2022-12-07T18:19:28;4.90;99.90
61807;DHT22;47726;52.766;6.606;2022-12-07T18:21:53;4.90;99.90